Time;durP1;ratioP1;P1;durP2;ratioP2;P2;SDS_P1;SDS_P2;PMS_P1;PMS_P2;Temp;Humidity;BMP_temperature;BMP_pressure;BME280_temperature;BME280_humidity;BME280_pressure;Samples;Min_cycle;Max_cycle;Signal;HPM_P1;HPM_P2
2022/03/11 00:00:09;;;;;;;10.88;4.72;;;;;;;;;;4183595;28;20128;-89
2022/03/11 00:02:11;;;;;;;8.98;4.05;;;;;;;;;;4183431;28;20103;-88
2022/03/11 00:04:13;;;;;;;7.95;3.72;;;;;;;;;;4184808;28;20049;-89
2022/03/11 00:06:14;;;;;;;9.20;4.43;;;;;;;;;;4166890;28;20060;-88
2022/03/11 00:08:16;;;;;;;9.05;4.20;;;6.40;67.60;;;;;;4184618;28;20041;-89
2022/03/11 00:10:18;;;;;;;9.63;5.10;;;6.80;70.50;;;;;;4163438;28;20057;-89
2022/03/11 00:12:19;;;;;;;9.98;4.38;;;6.40;70.70;;;;;;4183185;28;20048;-88
2022/03/11 00:14:19;;;;;;;7.45;4.28;;;7.20;71.20;;;;;;4183549;28;20049;-89
2022/03/11 00:16:20;;;;;;;8.63;3.60;;;6.30;71.30;;;;;;4184433;28;20460;-88
2022/03/11 00:18:21;;;;;;;8.63;4.57;;;6.20;71.90;;;;;;4183604;28;20132;-89
2022/03/11 00:20:22;;;;;;;7.45;4.00;;;6.20;72.40;;;;;;4180356;28;20428;-89
2022/03/11 00:22:23;;;;;;;8.52;3.88;;;6.20;72.40;;;;;;4183622;28;20494;-89
2022/03/11 00:24:24;;;;;;;11.80;5.70;;;6.10;73.10;;;;;;4182961;28;20091;-88
2022/03/11 00:26:25;;;;;;;8.98;4.40;;;6.70;73.80;;;;;;4166645;28;20091;-88
2022/03/11 00:28:25;;;;;;;8.50;4.05;;;6.00;74.90;;;;;;4183577;28;20049;-88
2022/03/11 00:30:29;;;;;;;8.65;5.00;;;6.00;74.20;;;;;;4182983;28;20106;-88
2022/03/11 00:32:30;;;;;;;12.63;4.25;;;6.00;75.20;;;;;;4199268;28;20052;-88
2022/03/11 00:34:34;;;;;;;6.80;4.10;;;6.30;75.40;;;;;;4182816;28;20052;-87
2022/03/11 00:36:34;;;;;;;8.45;4.55;;;6.00;75.90;;;;;;4179525;28;20133;-89
2022/03/11 00:38:36;;;;;;;8.02;3.88;;;6.10;76.80;;;;;;4164553;28;20073;-88
2022/03/11 00:40:36;;;;;;;7.88;4.30;;;5.90;76.60;;;;;;4180374;28;20068;-88
2022/03/11 00:42:39;;;;;;;8.82;4.07;;;6.90;77.80;;;;;;4183459;28;20041;-88
2022/03/11 00:44:43;;;;;;;15.88;4.57;;;5.90;77.40;;;;;;4164396;28;20153;-88
2022/03/11 00:46:44;;;;;;;8.27;4.45;;;6.40;78.70;;;;;;4182456;28;20048;-88
2022/03/11 00:48:45;;;;;;;9.70;4.68;;;5.80;77.80;;;;;;4167551;28;20480;-88
2022/03/11 00:50:47;;;;;;;11.98;4.57;;;6.40;79.20;;;;;;4169594;28;20151;-88
2022/03/11 00:52:48;;;;;;;9.70;4.72;;;5.70;79.20;;;;;;4169533;28;20049;-89
2022/03/11 00:54:49;;;;;;;10.95;4.45;;;5.70;78.80;;;;;;4185624;28;20079;-90
2022/03/11 00:56:49;;;;;;;7.80;4.38;;;5.70;79.80;;;;;;4185292;28;20041;-89
2022/03/11 00:58:50;;;;;;;9.70;4.95;;;5.60;79.80;;;;;;4183067;28;20047;-89
2022/03/11 01:00:51;;;;;;;8.95;4.78;;;6.50;80.50;;;;;;4180152;28;20044;-88
2022/03/11 01:02:53;;;;;;;9.45;4.47;;;5.60;80.30;;;;;;4163515;28;20389;-89
2022/03/11 01:04:53;;;;;;;10.75;4.85;;;6.20;81.30;;;;;;4184179;28;20045;-88
2022/03/11 01:06:54;;;;;;;8.23;4.53;;;5.60;81.00;;;;;;4183919;28;20081;-88
2022/03/11 01:08:55;;;;;;;9.10;4.40;;;6.60;81.70;;;;;;4184002;28;20041;-89
2022/03/11 01:10:56;;;;;;;12.73;5.10;;;5.50;81.10;;;;;;4183391;28;20124;-88
2022/03/11 01:12:56;;;;;;;12.40;4.22;;;5.50;81.90;;;;;;4166743;28;20077;-88
2022/03/11 01:14:58;;;;;;;11.10;5.57;;;5.50;81.80;;;;;;4179960;28;20049;-88
2022/03/11 01:17:01;;;;;;;9.20;5.43;;;5.40;82.10;;;;;;4182998;28;20123;-88
2022/03/11 01:19:03;;;;;;;10.88;5.50;;;5.40;82.10;;;;;;4183786;28;20056;-89
2022/03/11 01:21:05;;;;;;;9.05;4.90;;;5.40;82.80;;;;;;4166307;28;20053;-89
2022/03/11 01:23:07;;;;;;;7.95;4.45;;;5.40;82.60;;;;;;4183385;28;20068;-89
2022/03/11 01:25:09;;;;;;;12.63;5.35;;;5.30;83.50;;;;;;4183471;28;20115;-89
2022/03/11 01:27:09;;;;;;;10.35;4.95;;;5.30;84.20;;;;;;4182505;28;20041;-89
2022/03/11 01:29:10;;;;;;;9.50;5.18;;;5.30;83.40;;;;;;4165355;28;20060;-89
2022/03/11 01:31:12;;;;;;;12.20;4.85;;;5.20;84.20;;;;;;4181606;28;20048;-89
2022/03/11 01:33:13;;;;;;;14.25;5.13;;;5.20;84.40;;;;;;4198437;28;20056;-89
2022/03/11 01:35:14;;;;;;;11.02;5.68;;;5.10;84.90;;;;;;4183151;28;20116;-88
2022/03/11 01:37:16;;;;;;;11.38;5.45;;;5.10;85.00;;;;;;4182110;28;20083;-89
2022/03/11 01:39:17;;;;;;;11.48;5.28;;;5.00;85.30;;;;;;4196344;28;20143;-89
2022/03/11 01:41:18;;;;;;;13.98;5.72;;;5.00;86.00;;;;;;4182006;28;20057;-88
2022/03/11 01:43:20;;;;;;;11.40;4.88;;;5.10;86.00;;;;;;4183614;28;20047;-89
2022/03/11 01:45:22;;;;;;;10.50;5.65;;;4.90;86.00;;;;;;4181967;28;20043;-88
2022/03/11 01:47:23;;;;;;;10.65;5.80;;;4.80;86.20;;;;;;4183055;28;20116;-89
2022/03/11 01:49:24;;;;;;;10.77;5.80;;;4.80;87.30;;;;;;4164759;28;20041;-87
2022/03/11 01:51:30;;;;;;;10.52;5.63;;;4.80;87.90;;;;;;4166204;28;20050;-89
2022/03/11 01:53:31;;;;;;;13.23;6.22;;;5.80;89.30;;;;;;4182421;28;20134;-88
2022/03/11 01:55:32;;;;;;;13.10;5.72;;;5.30;89.10;;;;;;4182414;28;20048;-88
2022/03/11 01:57:37;;;;;;;16.50;6.47;;;4.60;88.80;;;;;;4156646;28;20077;-88
2022/03/11 01:59:39;;;;;;;13.15;6.63;;;5.70;90.00;;;;;;4181262;28;20466;-88
2022/03/11 02:01:41;;;;;;;14.15;6.55;;;5.50;89.70;;;;;;4181794;28;20045;-88
2022/03/11 02:03:42;;;;;;;12.65;6.10;;;5.60;90.00;;;;;;4183253;28;20473;-88
2022/03/11 02:05:44;;;;;;;13.15;6.35;;;4.60;89.80;;;;;;4182034;28;20052;-88
2022/03/11 02:07:50;;;;;;;17.88;6.55;;;4.30;90.00;;;;;;4182236;28;20048;-88
2022/03/11 02:09:51;;;;;;;14.93;6.63;;;5.10;90.30;;;;;;4181377;28;20095;-88
2022/03/11 02:11:51;;;;;;;16.73;6.85;;;5.30;90.20;;;;;;4182672;28;20048;-88
2022/03/11 02:13:57;;;;;;;14.75;7.10;;;4.40;90.40;;;;;;4181997;28;20049;-88
2022/03/11 02:16:02;;;;;;;12.93;6.65;;;4.40;90.50;;;;;;4183318;28;20415;-88
2022/03/11 02:18:02;;;;;;;14.32;7.78;;;4.40;90.40;;;;;;4181741;28;20052;-88
2022/03/11 02:20:06;;;;;;;14.98;6.97;;;4.40;90.80;;;;;;4165227;28;20045;-88
2022/03/11 02:22:07;;;;;;;17.85;8.10;;;3.20;90.60;;;;;;4180544;28;20056;-89
2022/03/11 02:24:09;;;;;;;14.45;7.32;;;5.50;91.20;;;;;;4165645;28;20060;-88
2022/03/11 02:26:11;;;;;;;15.57;7.97;;;5.10;91.30;;;;;;4182639;28;20510;-88
2022/03/11 02:28:12;;;;;;;16.42;6.88;;;5.20;91.50;;;;;;4165126;28;20495;-88
2022/03/11 02:30:19;;;;;;;17.75;7.82;;;5.60;91.80;;;;;;4165485;28;20045;-88
2022/03/11 02:32:19;;;;;;;16.27;7.78;;;4.20;91.40;;;;;;4165782;28;20136;-87
2022/03/11 02:34:20;;;;;;;17.27;8.30;;;5.50;92.10;;;;;;4183547;28;20056;-88
2022/03/11 02:36:21;;;;;;;22.73;8.38;;;5.10;91.70;;;;;;4165923;28;20042;-88
2022/03/11 02:38:23;;;;;;;18.67;9.05;;;4.80;91.80;;;;;;4183016;28;20832;-89
2022/03/11 02:40:25;;;;;;;15.77;8.10;;;5.20;92.10;;;;;;4183299;28;20041;-88
2022/03/11 02:42:32;;;;;;;16.70;8.95;;;4.10;92.10;;;;;;4165042;28;20045;-89
2022/03/11 02:44:33;;;;;;;17.92;9.00;;;4.10;92.10;;;;;;4183078;28;20064;-89
2022/03/11 02:46:35;;;;;;;17.58;7.90;;;4.70;92.10;;;;;;4182220;28;20079;-89
2022/03/11 02:48:37;;;;;;;18.70;8.50;;;4.10;92.00;;;;;;4182190;28;20506;-89
2022/03/11 02:50:38;;;;;;;21.92;9.27;;;4.90;92.30;;;;;;4183417;28;20093;-89
2022/03/11 02:52:39;;;;;;;16.10;8.38;;;4.10;92.20;;;;;;4175834;28;20173;-89
2022/03/11 02:54:40;;;;;;;20.33;9.38;;;4.10;92.00;;;;;;4165489;28;20041;-88
2022/03/11 02:56:43;;;;;;;18.38;8.93;;;4.10;92.20;;;;;;4181603;28;20080;-88
2022/03/11 02:58:43;;;;;;;18.42;8.52;;;5.20;92.30;;;;;;4165485;28;20053;-89
2022/03/11 03:00:46;;;;;;;16.77;8.73;;;5.40;92.50;;;;;;4164928;28;20049;-88
2022/03/11 03:02:46;;;;;;;20.48;9.27;;;5.00;92.80;;;;;;4164716;28;20046;-88
2022/03/11 03:04:47;;;;;;;21.35;9.40;;;5.10;92.80;;;;;;4165192;28;20049;-88
2022/03/11 03:06:48;;;;;;;19.02;9.32;;;4.20;92.50;;;;;;4148386;28;20053;-88
2022/03/11 03:08:50;;;;;;;18.77;9.13;;;4.10;92.70;;;;;;4164634;28;20053;-88
2022/03/11 03:10:52;;;;;;;19.98;9.63;;;4.10;92.60;;;;;;4148406;28;20500;-88
2022/03/11 03:12:52;;;;;;;19.95;9.25;;;4.10;92.70;;;;;;4164629;28;20483;-88
2022/03/11 03:14:53;;;;;;;21.05;9.70;;;5.50;93.10;;;;;;4166052;28;20053;-88
2022/03/11 03:16:55;;;;;;;20.75;10.52;;;5.50;93.30;;;;;;4166246;28;20559;-89
2022/03/11 03:18:56;;;;;;;21.55;9.60;;;5.20;93.10;;;;;;4165149;28;20166;-87
2022/03/11 03:20:56;;;;;;;20.67;9.90;;;5.40;93.40;;;;;;4164472;28;20484;-87
2022/03/11 03:22:57;;;;;;;22.20;10.00;;;4.10;93.20;;;;;;4181465;28;20045;-88
2022/03/11 03:25:00;;;;;;;19.63;9.55;;;5.20;93.10;;;;;;4181803;28;20541;-87
2022/03/11 03:27:02;;;;;;;22.60;10.75;;;4.80;93.10;;;;;;4181439;28;20074;-89
2022/03/11 03:29:03;;;;;;;20.02;10.38;;;4.00;93.10;;;;;;4182972;28;20049;-87
2022/03/11 03:31:04;;;;;;;20.23;10.32;;;4.00;93.00;;;;;;4180686;28;20567;-88
2022/03/11 03:33:04;;;;;;;20.95;10.48;;;5.50;93.40;;;;;;4182574;28;20144;-87
2022/03/11 03:35:06;;;;;;;20.85;10.52;;;5.20;93.10;;;;;;4181050;28;20475;-88
2022/03/11 03:37:10;;;;;;;21.73;10.77;;;3.90;93.30;;;;;;4181665;28;20061;-88
2022/03/11 03:39:17;;;;;;;22.27;11.32;;;5.30;93.60;;;;;;4181837;28;20029;-89
2022/03/11 03:41:18;;;;;;;20.85;10.55;;;4.10;93.50;;;;;;4164518;28;20049;-88
2022/03/11 03:43:20;;;;;;;23.90;9.95;;;5.20;93.70;;;;;;4181032;28;20518;-89
2022/03/11 03:45:21;;;;;;;22.98;10.48;;;5.20;93.50;;;;;;4180900;28;20580;-89
2022/03/11 03:47:21;;;;;;;22.00;10.25;;;5.00;93.50;;;;;;4181068;28;20048;-88
2022/03/11 03:49:22;;;;;;;22.48;10.27;;;5.30;93.90;;;;;;4182061;28;20072;-88
2022/03/11 03:51:23;;;;;;;23.75;11.05;;;4.90;94.20;;;;;;4182610;28;20048;-89
2022/03/11 03:53:25;;;;;;;20.25;9.57;;;3.90;93.60;;;;;;4180464;28;20164;-88
2022/03/11 03:55:25;;;;;;;22.92;11.38;;;3.80;93.60;;;;;;4183120;28;20515;-89
2022/03/11 03:57:27;;;;;;;23.95;12.07;;;3.70;93.40;;;;;;4181269;28;20092;-89
2022/03/11 03:59:29;;;;;;;22.58;10.43;;;5.20;94.00;;;;;;4198105;28;20044;-89
2022/03/11 04:01:40;;;;;;;23.08;10.43;;;5.20;94.10;;;;;;4165437;28;20113;-88
2022/03/11 04:03:40;;;;;;;25.00;9.98;;;3.70;93.60;;;;;;4182807;28;20053;-88
2022/03/11 04:05:41;;;;;;;22.17;10.00;;;4.70;94.10;;;;;;4183686;28;20392;-87
2022/03/11 04:07:45;;;;;;;23.13;10.20;;;4.80;94.40;;;;;;4165736;28;20488;-88
2022/03/11 04:09:45;;;;;;;23.83;10.85;;;3.40;93.60;;;;;;4183911;28;20059;-89
2022/03/11 04:11:47;;;;;;;19.38;10.02;;;4.90;94.20;;;;;;4183965;28;20041;-88
2022/03/11 04:13:55;;;;;;;21.92;10.43;;;4.60;94.20;;;;;;4184914;28;20045;-89
2022/03/11 04:15:56;;;;;;;20.40;9.68;;;3.50;93.80;;;;;;4168159;28;20049;-89
2022/03/11 04:17:57;;;;;;;23.70;10.98;;;3.60;94.00;;;;;;4168697;28;20053;-88
2022/03/11 04:19:59;;;;;;;25.67;10.43;;;4.70;94.40;;;;;;4186066;28;20048;-89
2022/03/11 04:22:01;;;;;;;20.33;9.85;;;4.90;94.40;;;;;;4185889;28;20041;-87
2022/03/11 04:24:04;;;;;;;21.52;10.45;;;3.50;93.90;;;;;;4185808;28;20490;-88
2022/03/11 04:26:05;;;;;;;23.40;11.25;;;3.80;94.30;;;;;;4185667;28;20060;-88
2022/03/11 04:28:06;;;;;;;28.33;11.98;;;4.80;94.30;;;;;;4185323;28;20426;-89
2022/03/11 04:30:08;;;;;;;22.38;11.15;;;4.50;94.20;;;;;;4185190;28;20045;-88
2022/03/11 04:32:09;;;;;;;20.83;10.68;;;3.40;93.80;;;;;;4168191;28;20060;-89
2022/03/11 04:34:10;;;;;;;27.90;11.32;;;4.80;94.60;;;;;;4167675;28;20123;-88
2022/03/11 04:36:11;;;;;;;22.50;10.68;;;4.90;94.80;;;;;;4184591;28;20045;-87
2022/03/11 04:38:12;;;;;;;22.92;11.13;;;3.30;94.80;;;;;;4187121;28;20033;-89
2022/03/11 04:40:13;;;;;;;22.70;11.38;;;4.40;95.00;;;;;;4188669;28;20072;-88
2022/03/11 04:42:16;;;;;;;21.15;10.50;;;4.30;94.50;;;;;;4188353;28;20037;-88
2022/03/11 04:44:17;;;;;;;22.48;10.20;;;4.20;94.60;;;;;;4186528;28;20049;-89
2022/03/11 04:46:18;;;;;;;24.00;10.43;;;3.30;94.40;;;;;;4168006;28;20048;-88
2022/03/11 04:48:19;;;;;;;22.23;10.82;;;4.70;94.80;;;;;;4184359;28;20053;-89
2022/03/11 04:50:20;;;;;;;22.98;10.30;;;2.50;94.40;;;;;;4201523;28;20072;-87
2022/03/11 04:52:21;;;;;;;23.17;11.57;;;2.40;94.40;;;;;;4186437;28;20540;-88
2022/03/11 04:54:23;;;;;;;21.73;11.15;;;3.20;95.00;;;;;;4186431;28;20053;-88
2022/03/11 04:56:26;;;;;;;21.17;10.63;;;3.10;94.70;;;;;;4185790;28;20500;-88
2022/03/11 04:58:27;;;;;;;24.25;10.85;;;4.20;95.10;;;;;;4184131;28;20041;-87
2022/03/11 05:00:29;;;;;;;22.17;10.02;;;2.80;94.50;;;;;;4184592;28;20083;-88
2022/03/11 05:02:31;;;;;;;23.55;9.93;;;3.50;94.70;;;;;;4185002;28;20041;-88
2022/03/11 05:04:34;;;;;;;20.02;10.82;;;3.40;94.70;;;;;;4184849;28;20600;-88
2022/03/11 05:06:35;;;;;;;22.75;11.82;;;3.00;94.60;;;;;;4183708;28;20063;-89
2022/03/11 05:08:36;;;;;;;24.63;10.50;;;4.10;95.00;;;;;;4166860;28;20049;-89
2022/03/11 05:10:38;;;;;;;26.52;11.02;;;3.30;95.10;;;;;;4184231;28;20430;-89
2022/03/11 05:12:40;;;;;;;22.85;10.50;;;3.60;95.20;;;;;;4183314;28;20045;-89
2022/03/11 05:14:50;;;;;;;21.10;10.90;;;2.90;95.00;;;;;;4183005;28;20570;-87
2022/03/11 05:16:52;;;;;;;24.88;11.02;;;2.20;94.70;;;;;;4182917;28;20081;-88
2022/03/11 05:18:53;;;;;;;31.20;11.05;;;3.60;95.20;;;;;;4183258;28;20120;-87
2022/03/11 05:20:54;;;;;;;25.88;11.02;;;2.90;95.00;;;;;;4182614;28;20052;-88
2022/03/11 05:22:56;;;;;;;24.70;12.02;;;3.60;95.10;;;;;;4149917;28;20534;-89
2022/03/11 05:24:58;;;;;;;23.17;10.25;;;4.10;95.70;;;;;;4149937;28;20093;-88
2022/03/11 05:27:01;;;;;;;22.98;10.75;;;3.10;95.50;;;;;;4166464;28;20507;-88
2022/03/11 05:29:03;;;;;;;19.35;10.30;;;1.60;94.80;;;;;;4166610;28;20060;-89
2022/03/11 05:31:05;;;;;;;22.83;10.55;;;2.80;95.00;;;;;;4149697;28;20084;-88
2022/03/11 05:33:06;;;;;;;23.08;10.95;;;2.70;95.00;;;;;;4167014;28;20140;-88
2022/03/11 05:35:07;;;;;;;23.27;10.85;;;4.30;95.60;;;;;;4156169;28;20044;-88
2022/03/11 05:37:09;;;;;;;21.65;10.38;;;2.80;94.80;;;;;;4185073;28;20048;-88
2022/03/11 05:39:10;;;;;;;24.67;11.73;;;3.80;95.60;;;;;;4167217;28;20049;-88
2022/03/11 05:41:11;;;;;;;22.92;11.57;;;2.70;95.40;;;;;;4182553;28;20504;-88
2022/03/11 05:43:14;;;;;;;23.75;10.32;;;2.60;95.30;;;;;;4184143;28;20051;-89
2022/03/11 05:45:15;;;;;;;21.52;11.18;;;1.60;95.10;;;;;;4183438;28;20434;-88
2022/03/11 05:47:16;;;;;;;25.83;10.98;;;2.50;95.20;;;;;;4182648;28;20075;-89
2022/03/11 05:49:17;;;;;;;23.52;10.80;;;2.70;95.40;;;;;;4184011;28;20438;-89
2022/03/11 05:51:19;;;;;;;23.95;11.15;;;2.60;95.40;;;;;;4166959;28;20046;-89
2022/03/11 05:53:20;;;;;;;23.83;10.40;;;2.70;95.40;;;;;;4182230;28;20754;-88
2022/03/11 05:55:23;;;;;;;29.70;12.85;;;4.10;95.70;;;;;;4165965;28;20106;-87
2022/03/11 05:57:24;;;;;;;24.27;11.60;;;2.70;95.40;;;;;;4183337;28;20095;-88
2022/03/11 05:59:26;;;;;;;22.45;11.32;;;2.50;95.60;;;;;;4183245;28;20530;-89
2022/03/11 06:01:27;;;;;;;23.65;11.15;;;4.00;96.20;;;;;;4182772;28;20515;-89
2022/03/11 06:03:30;;;;;;;22.35;11.07;;;3.10;96.00;;;;;;4183508;28;20128;-89
2022/03/11 06:05:30;;;;;;;24.88;11.35;;;3.70;95.50;;;;;;4166375;28;20049;-88
2022/03/11 06:07:33;;;;;;;24.38;11.85;;;3.70;95.90;;;;;;4166001;28;20092;-89
2022/03/11 06:09:35;;;;;;;24.30;11.38;;;2.40;95.80;;;;;;4199291;28;20556;-89
2022/03/11 06:11:36;;;;;;;35.38;12.57;;;2.20;95.50;;;;;;4183798;28;20045;-88
2022/03/11 06:13:37;;;;;;;23.40;10.77;;;3.70;96.10;;;;;;4184082;28;20043;-88
2022/03/11 06:15:37;;;;;;;23.50;10.23;;;4.00;96.20;;;;;;4184330;28;20411;-88
2022/03/11 06:17:38;;;;;;;23.40;10.55;;;3.50;95.60;;;;;;4166531;28;20053;-89
2022/03/11 06:19:41;;;;;;;25.33;11.55;;;2.60;95.50;;;;;;4182777;28;20111;-88
2022/03/11 06:21:42;;;;;;;24.10;11.57;;;2.40;95.30;;;;;;4183430;28;20067;-88
2022/03/11 06:23:42;;;;;;;20.60;10.27;;;2.50;96.10;;;;;;4150396;28;20053;-87
2022/03/11 06:25:45;;;;;;;22.38;11.07;;;4.00;96.00;;;;;;4165754;28;20050;-87
2022/03/11 06:27:46;;;;;;;22.60;11.18;;;2.50;95.50;;;;;;4165551;28;20137;-89
2022/03/11 06:29:47;;;;;;;22.75;11.45;;;3.80;96.30;;;;;;4167178;28;20041;-89
2022/03/11 06:31:48;;;;;;;23.27;9.95;;;4.00;96.00;;;;;;4166822;28;20139;-89
2022/03/11 06:33:49;;;;;;;21.90;10.90;;;3.30;95.80;;;;;;4173129;28;20064;-89
2022/03/11 06:35:51;;;;;;;29.48;11.38;;;3.00;96.00;;;;;;4183539;28;20081;-89
2022/03/11 06:37:52;;;;;;;21.98;9.80;;;2.90;95.70;;;;;;4181765;28;20049;-87
2022/03/11 06:39:54;;;;;;;22.95;10.25;;;3.00;95.70;;;;;;4183491;28;20415;-88
2022/03/11 06:41:54;;;;;;;25.70;10.70;;;4.10;95.80;;;;;;4165751;28;20041;-87
2022/03/11 06:43:55;;;;;;;23.63;11.48;;;3.30;95.50;;;;;;4181913;28;20056;-88
2022/03/11 06:45:56;;;;;;;23.63;10.35;;;2.50;95.30;;;;;;4182703;28;20049;-88
2022/03/11 06:47:59;;;;;;;22.75;10.40;;;3.60;95.30;;;;;;4165472;28;20191;-88
2022/03/11 06:50:01;;;;;;;25.52;10.10;;;3.70;95.50;;;;;;4181904;28;20148;-88
2022/03/11 06:52:02;;;;;;;22.27;10.40;;;2.40;94.80;;;;;;4182503;28;20048;-88
2022/03/11 06:54:06;;;;;;;22.70;9.80;;;2.60;95.10;;;;;;4165629;28;20049;-88
2022/03/11 06:56:09;;;;;;;21.85;10.10;;;2.90;95.10;;;;;;4183027;28;20498;-88
2022/03/11 06:58:10;;;;;;;35.30;11.40;;;3.90;95.40;;;;;;4166197;28;20052;-88
2022/03/11 07:00:13;;;;;;;24.98;11.77;;;2.80;95.10;;;;;;4183644;28;20051;-89
2022/03/11 07:02:14;;;;;;;26.83;10.75;;;2.90;95.00;;;;;;4183489;28;20083;-89
2022/03/11 07:04:16;;;;;;;21.40;10.98;;;3.90;95.00;;;;;;4165829;28;20056;-88
2022/03/11 07:06:16;;;;;;;21.55;9.43;;;3.80;94.80;;;;;;4184584;28;20052;-88
2022/03/11 07:08:18;;;;;;;23.73;10.38;;;3.20;94.50;;;;;;4167862;28;20049;-88
2022/03/11 07:10:20;;;;;;;23.05;10.85;;;3.70;94.40;;;;;;4181663;28;20047;-88
2022/03/11 07:12:21;;;;;;;21.70;10.20;;;4.40;94.20;;;;;;4184537;28;20083;-88
2022/03/11 07:14:24;;;;;;;29.35;10.40;;;4.90;94.00;;;;;;4183843;28;20044;-89
2022/03/11 07:16:26;;;;;;;18.60;9.60;;;5.50;93.70;;;;;;4183098;28;20075;-88
2022/03/11 07:18:27;;;;;;;24.13;11.10;;;5.40;93.20;;;;;;4181753;28;20148;-88
2022/03/11 07:20:28;;;;;;;19.55;9.25;;;4.40;92.40;;;;;;4181748;28;20097;-89
2022/03/11 07:22:36;;;;;;;25.67;10.27;;;5.20;91.50;;;;;;4152790;28;20050;-87
2022/03/11 07:24:39;;;;;;;26.27;10.50;;;6.50;91.40;;;;;;4165280;28;20053;-88
2022/03/11 07:26:40;;;;;;;21.55;10.05;;;5.90;91.00;;;;;;4166732;28;20045;-89
2022/03/11 07:29:09;;;;;;;22.42;9.80;;;5.40;90.70;;;;;;4151741;28;20060;-88
2022/03/11 07:31:10;;;;;;;19.13;9.52;;;5.60;91.20;;;;;;4181407;28;20063;-90
2022/03/11 07:33:12;;;;;;;21.40;10.32;;;6.00;90.70;;;;;;4186548;28;20109;-89
2022/03/11 07:35:18;;;;;;;24.63;10.68;;;4.80;90.40;;;;;;4185568;28;20044;-87
2022/03/11 07:37:21;;;;;;;21.88;10.38;;;5.50;90.50;;;;;;4180531;28;20538;-87
2022/03/11 07:39:23;;;;;;;23.80;10.30;;;6.60;90.30;;;;;;4181930;28;20067;-89
2022/03/11 07:41:32;;;;;;;18.33;9.35;;;5.50;89.80;;;;;;4179050;28;20586;-89
2022/03/11 07:43:35;;;;;;;25.37;10.63;;;5.80;88.10;;;;;;4181408;28;20037;-88
2022/03/11 07:45:36;;;;;;;19.73;10.23;;;6.80;88.10;;;;;;4163786;28;20115;-87
2022/03/11 07:47:37;;;;;;;24.70;10.90;;;6.00;87.90;;;;;;4166431;28;20045;-87
2022/03/11 07:49:39;;;;;;;19.98;10.02;;;7.10;87.40;;;;;;4184432;28;20049;-88
2022/03/11 07:51:39;;;;;;;19.33;9.30;;;6.50;86.20;;;;;;4185434;28;20056;-88
2022/03/11 07:53:40;;;;;;;26.70;11.15;;;;;;;;;;4184241;28;20438;-88
2022/03/11 07:55:42;;;;;;;19.92;9.93;;;;;;;;;;4183679;28;20406;-88
2022/03/11 07:57:43;;;;;;;20.08;9.95;;;;;;;;;;4167032;28;20119;-88
2022/03/11 07:59:45;;;;;;;21.48;9.77;;;;;;;;;;4183312;28;20045;-88
2022/03/11 08:01:47;;;;;;;22.05;9.73;;;;;;;;;;4183819;28;20127;-89
2022/03/11 08:03:49;;;;;;;19.25;9.80;;;;;;;;;;4183888;28;20076;-87
2022/03/11 08:05:50;;;;;;;18.92;9.85;;;;;;;;;;4167985;28;20049;-88
2022/03/11 08:07:52;;;;;;;19.88;10.55;;;;;;;;;;4185669;28;20045;-88
2022/03/11 08:09:54;;;;;;;20.73;9.20;;;;;;;;;;4167482;28;20642;-88
2022/03/11 08:11:56;;;;;;;18.65;10.52;;;;;;;;;;4183111;28;20071;-88
2022/03/11 08:13:58;;;;;;;17.00;9.10;;;;;;;;;;4183597;28;20049;-88
2022/03/11 08:15:59;;;;;;;22.15;10.70;;;;;;;;;;4183353;28;20125;-88
2022/03/11 08:18:00;;;;;;;19.83;10.90;;;;;;;;;;4166723;28;20105;-88
2022/03/11 08:20:02;;;;;;;20.50;11.07;;;;;;;;;;4182847;28;20430;-88
2022/03/11 08:22:05;;;;;;;18.90;10.50;;;;;;;;;;4184132;28;20415;-88
2022/03/11 08:24:06;;;;;;;21.48;10.30;;;;;;;;;;4184479;28;20063;-87
2022/03/11 08:26:08;;;;;;;25.40;10.32;;;;;;;;;;4181857;28;20037;-89
2022/03/11 08:28:13;;;;;;;21.38;11.40;;;;;;;;;;4182644;28;20545;-89
2022/03/11 08:30:15;;;;;;;18.95;9.88;;;;;;;;;;4182728;28;20519;-90
2022/03/11 08:32:16;;;;;;;19.95;10.63;;;;;;;;;;4166068;28;20048;-89
2022/03/11 08:34:17;;;;;;;22.38;9.98;;;;;;;;;;4184354;28;20049;-88
2022/03/11 08:36:20;;;;;;;19.30;10.15;;;;;;;;;;4166051;28;20833;-88
2022/03/11 08:38:21;;;;;;;20.95;9.82;;;;;;;;;;4164666;28;20054;-88
2022/03/11 08:40:24;;;;;;;20.75;10.80;;;;;;;;;;4178478;28;20109;-89
2022/03/11 08:42:25;;;;;;;20.58;10.35;;;;;;;;;;4183270;28;20130;-89
2022/03/11 08:44:27;;;;;;;19.95;11.23;;;;;;;;;;4181484;28;20132;-89
2022/03/11 08:46:30;;;;;;;22.42;10.68;;;;;;;;;;4181252;28;20047;-88
2022/03/11 08:48:31;;;;;;;23.38;10.40;;;;;;;;;;4183076;28;20045;-88
2022/03/11 08:50:33;;;;;;;18.83;10.65;;;;;;;;;;4182787;28;20052;-88
2022/03/11 08:52:36;;;;;;;18.55;10.18;;;;;;;;;;4182715;28;20399;-89
2022/03/11 08:54:37;;;;;;;17.13;9.55;;;;;;;;;;4181229;28;20053;-89
2022/03/11 08:56:40;;;;;;;18.85;10.15;;;;;;;;;;4181286;28;20071;-89
2022/03/11 08:58:42;;;;;;;20.45;9.93;;;;;;;;;;4178528;28;20485;-88
2022/03/11 09:00:44;;;;;;;21.73;10.25;;;;;;;;;;4181625;28;20049;-88
2022/03/11 09:02:46;;;;;;;17.45;10.23;;;;;;;;;;4165332;28;20073;-89
2022/03/11 09:04:47;;;;;;;23.88;11.57;;;;;;;;;;4164935;28;20562;-88
2022/03/11 09:06:49;;;;;;;20.10;10.05;;;;;;;;;;4180289;28;20102;-88
2022/03/11 09:08:50;;;;;;;16.88;10.35;;;;;;;;;;4182608;28;20045;-88
2022/03/11 09:10:51;;;;;;;21.70;10.93;;;;;;;;;;4182329;28;20379;-87
2022/03/11 09:12:53;;;;;;;16.95;9.60;;;;;;;;;;4182170;28;20048;-89
2022/03/11 09:14:54;;;;;;;19.23;9.73;;;;;;;;;;4181452;28;20049;-87
2022/03/11 09:16:55;;;;;;;18.60;9.98;;;;;;;;;;4181269;28;20465;-87
2022/03/11 09:18:56;;;;;;;18.58;9.95;;;;;;;;;;4182105;28;20056;-87
2022/03/11 09:21:02;;;;;;;18.63;10.15;;;;;;;;;;4180129;28;20044;-88
2022/03/11 09:23:03;;;;;;;19.08;9.55;;;;;;;;;;4180999;28;20052;-87
2022/03/11 09:25:07;;;;;;;17.38;9.40;;;;;;;;;;4181748;28;20052;-88
2022/03/11 09:27:09;;;;;;;19.48;10.23;;;;;;;;;;4164046;28;20054;-87
2022/03/11 09:29:10;;;;;;;18.00;10.20;;;;;;;;;;4180602;28;20041;-87
2022/03/11 09:31:11;;;;;;;20.77;9.75;;;;;;;;;;4180892;28;20045;-88
2022/03/11 09:33:12;;;;;;;19.13;10.27;;;;;;;;;;4181385;28;20094;-88
2022/03/11 09:35:15;;;;;;;17.98;9.85;;;;;;;;;;4179470;28;20053;-88
2022/03/11 09:37:17;;;;;;;17.05;8.82;;;;;;;;;;4163805;28;20522;-88
2022/03/11 09:39:19;;;;;;;20.05;10.05;;;;;;;;;;4181160;28;20094;-88
2022/03/11 09:41:22;;;;;;;18.55;8.93;;;;;;;;;;4181224;28;20130;-88
2022/03/11 09:43:23;;;;;;;22.38;10.30;;;;;;;;;;4179706;28;20044;-89
2022/03/11 09:45:26;;;;;;;18.05;9.07;;;;;;;;;;4180533;28;20049;-88
2022/03/11 09:47:29;;;;;;;18.30;10.27;;;;;;;;;;4181719;28;20471;-88
2022/03/11 09:49:35;;;;;;;18.92;9.52;;;;;;;;;;4180477;28;20559;-88
2022/03/11 09:51:36;;;;;;;21.65;9.98;;;;;;;;;;4181134;28;20126;-89
2022/03/11 09:53:37;;;;;;;18.15;9.23;;;;;;;;;;4171875;28;20045;-89
2022/03/11 09:55:43;;;;;;;21.95;10.73;;;;;;;;;;4181689;28;20124;-88
2022/03/11 09:57:44;;;;;;;20.15;9.88;;;;;;;;;;4177115;28;20038;-88
2022/03/11 09:59:46;;;;;;;18.60;10.00;;;;;;;;;;4180317;28;20051;-88
2022/03/11 10:01:47;;;;;;;18.30;9.05;;;;;;;;;;4181880;28;20041;-88
2022/03/11 10:03:48;;;;;;;17.23;10.60;;;;;;;;;;4183609;28;20048;-89
2022/03/11 10:05:51;;;;;;;22.40;9.85;;;;;;;;;;4185396;28;20045;-89
2022/03/11 10:08:04;;;;;;;17.63;9.27;;;;;;;;;;4186800;28;20041;-89
2022/03/11 10:10:32;;;;;;;18.55;10.00;;;;;;;;;;4168390;28;20098;-89
2022/03/11 10:12:33;;;;;;;19.33;10.07;;;;;;;;;;4170017;28;20103;-89
2022/03/11 10:14:35;;;;;;;20.05;10.02;;;;;;;;;;4181128;28;20495;-89
2022/03/11 10:16:37;;;;;;;18.00;9.93;;;;;;;;;;4182077;28;20080;-87
2022/03/11 10:18:39;;;;;;;22.60;9.48;;;;;;;;;;4181557;28;20073;-88
2022/03/11 10:20:41;;;;;;;16.67;9.15;;;;;;;;;;4182068;28;20037;-89
2022/03/11 10:22:45;;;;;;;18.85;10.02;;;;;;;;;;4183719;28;20053;-88
2022/03/11 10:24:46;;;;;;;20.85;9.75;;;;;;;;;;4183200;28;20051;-87
2022/03/11 10:26:51;;;;;;;18.98;9.65;;;;;;;;;;4181722;28;20055;-88
2022/03/11 10:29:00;;;;;;;17.83;9.43;;;;;;;;;;4181831;28;20048;-87
2022/03/11 10:31:10;;;;;;;17.33;8.57;;;;;;;;;;4159289;28;20531;-89
2022/03/11 10:33:12;;;;;;;17.33;9.77;;;;;;;;;;4174132;28;20057;-87
2022/03/11 10:35:18;;;;;;;16.30;10.05;;;;;;;;;;4181666;28;20450;-88
2022/03/11 10:37:19;;;;;;;20.45;10.57;;;;;;;;;;4181292;28;20041;-89
2022/03/11 10:39:22;;;;;;;19.80;10.07;;;;;;;;;;4180871;28;20076;-88
2022/03/11 10:41:31;;;;;;;29.50;10.98;;;;;;;;;;4163284;28;20069;-88
2022/03/11 10:43:33;;;;;;;;;;;;;;;;;;4162965;28;20048;-88
2022/03/11 10:45:51;;;;;;;20.15;10.13;;;;;;;;;;4180549;28;20018;-87
2022/03/11 10:47:52;;;;;;;25.40;11.37;;;;;;;;;;4185570;28;20040;-88
2022/03/11 10:49:55;;;;;;;18.88;10.38;;;;;;;;;;4168141;28;20118;-88
2022/03/11 10:51:56;;;;;;;19.02;10.07;;;;;;;;;;4162965;28;20054;-88
2022/03/11 10:54:02;;;;;;;20.15;9.82;;;;;;;;;;4180580;28;20044;-88